createdAt,value
2018-09-21T00:00:10.053Z,9.47
2018-09-21T00:02:40.671Z,11.33
2018-09-21T00:05:10.230Z,10.27
2018-09-21T00:07:39.819Z,8.97
2018-09-21T00:10:09.442Z,9.40
2018-09-21T00:12:39.117Z,9.60
2018-09-21T00:15:08.838Z,9.93
2018-09-21T00:17:38.423Z,10.70
2018-09-21T00:20:08.177Z,10.40
2018-09-21T00:22:37.794Z,10.07
2018-09-21T00:25:07.406Z,10.27
2018-09-21T00:27:36.932Z,10.40
2018-09-21T00:30:06.732Z,10.53
2018-09-21T00:32:36.376Z,10.60
2018-09-21T00:35:05.957Z,10.00
2018-09-21T00:37:35.641Z,10.40
2018-09-21T00:40:05.360Z,9.67
2018-09-21T00:42:34.929Z,9.73
2018-09-21T00:45:04.763Z,9.63
2018-09-21T00:47:34.302Z,9.27
2018-09-21T00:50:03.941Z,11.70
2018-09-21T00:52:33.536Z,10.37
2018-09-21T00:55:03.155Z,10.13
2018-09-21T00:57:32.787Z,9.80
2018-09-21T01:00:02.416Z,9.93
2018-09-21T01:02:32.107Z,10.93
2018-09-21T01:05:01.671Z,10.13
2018-09-21T01:07:31.232Z,10.37
2018-09-21T01:10:00.869Z,9.70
2018-09-21T01:12:31.534Z,10.17
2018-09-21T01:15:01.171Z,10.33
2018-09-21T01:17:30.746Z,10.13
2018-09-21T01:20:00.322Z,11.03
2018-09-21T01:22:29.914Z,10.47
2018-09-21T01:24:59.565Z,9.20
2018-09-21T01:27:29.185Z,9.43
2018-09-21T01:29:58.764Z,11.50
2018-09-21T01:32:28.394Z,9.17
2018-09-21T01:34:58.108Z,9.47
2018-09-21T01:37:27.675Z,9.63
2018-09-21T01:39:57.288Z,9.33
2018-09-21T01:42:26.886Z,9.73
2018-09-21T01:44:56.469Z,10.30
2018-09-21T01:47:26.047Z,9.60
2018-09-21T01:49:55.694Z,8.87
2018-09-21T01:52:25.343Z,9.17
2018-09-21T01:54:54.908Z,8.97
2018-09-21T01:57:24.601Z,8.90
2018-09-21T01:59:54.208Z,9.43
2018-09-21T02:02:23.955Z,11.00
2018-09-21T02:04:53.624Z,9.23
2018-09-21T02:07:23.228Z,9.70
2018-09-21T02:09:52.890Z,9.73
2018-09-21T02:12:22.640Z,9.90
2018-09-21T02:14:52.262Z,10.53
2018-09-21T02:17:21.931Z,8.20
2018-09-21T02:19:53.766Z,8.80
2018-09-21T02:22:23.394Z,9.10
2018-09-21T02:24:53.025Z,10.37
2018-09-21T02:27:22.659Z,9.57
2018-09-21T02:29:52.305Z,8.60
2018-09-21T02:32:21.987Z,8.83
2018-09-21T02:34:51.551Z,10.17
2018-09-21T02:37:21.241Z,9.17
2018-09-21T02:39:50.815Z,9.10
2018-09-21T02:42:20.580Z,9.60
2018-09-21T02:44:50.149Z,8.70
2018-09-21T02:47:19.743Z,9.33
2018-09-21T02:49:49.444Z,9.57
2018-09-21T02:52:19.051Z,9.07
2018-09-21T02:54:48.630Z,12.53
2018-09-21T02:57:18.203Z,12.23
2018-09-21T02:59:47.748Z,9.10
2018-09-21T03:02:17.360Z,10.73
2018-09-21T03:04:52.142Z,9.43
2018-09-21T03:07:22.178Z,11.80
2018-09-21T03:09:52.881Z,8.77
2018-09-21T03:12:22.550Z,11.63
2018-09-21T03:14:52.284Z,9.97
2018-09-21T03:17:21.878Z,9.97
2018-09-21T03:19:51.502Z,8.87
2018-09-21T03:22:21.202Z,9.03
2018-09-21T03:24:50.805Z,8.87
2018-09-21T03:27:20.539Z,9.10
2018-09-21T03:29:50.236Z,9.07
2018-09-21T03:32:23.629Z,9.37
2018-09-21T03:34:53.778Z,10.67
2018-09-21T03:37:23.450Z,8.90
2018-09-21T03:39:57.806Z,9.13
2018-09-21T03:42:29.436Z,11.90
2018-09-21T03:44:59.152Z,9.23
2018-09-21T03:47:28.876Z,9.60
2018-09-21T03:49:58.608Z,11.43
2018-09-21T03:52:28.856Z,9.20
2018-09-21T03:54:58.603Z,10.40
2018-09-21T03:57:28.305Z,9.63
2018-09-21T03:59:57.966Z,10.13
2018-09-21T04:02:27.635Z,12.47
2018-09-21T04:04:57.381Z,10.37
2018-09-21T04:07:27.042Z,8.90
2018-09-21T04:09:56.733Z,10.37
2018-09-21T04:12:26.345Z,10.53
2018-09-21T04:14:56.992Z,15.23
2018-09-21T04:17:26.908Z,9.27
2018-09-21T04:19:56.612Z,10.10
2018-09-21T04:22:26.249Z,9.73
2018-09-21T04:24:56.039Z,9.87
2018-09-21T04:27:25.889Z,9.53
2018-09-21T04:29:55.543Z,9.37
2018-09-21T04:32:25.130Z,11.20
2018-09-21T04:34:54.857Z,8.93
2018-09-21T04:37:24.477Z,13.70
2018-09-21T04:39:54.035Z,8.93
2018-09-21T04:42:23.754Z,13.10
2018-09-21T04:44:53.373Z,9.00
2018-09-21T04:47:22.989Z,10.10
2018-09-21T04:49:52.579Z,11.90
2018-09-21T04:52:22.363Z,9.47
2018-09-21T04:54:51.929Z,10.17
2018-09-21T04:57:21.645Z,10.57
2018-09-21T04:59:51.242Z,10.87
2018-09-21T05:02:21.045Z,11.60
2018-09-21T05:04:50.703Z,10.10
2018-09-21T05:07:20.334Z,11.83
2018-09-21T05:09:49.932Z,10.50
2018-09-21T05:12:19.714Z,9.53
2018-09-21T05:14:49.486Z,11.60
2018-09-21T05:17:19.161Z,9.83
2018-09-21T05:19:48.747Z,9.33
2018-09-21T05:22:18.349Z,9.47
2018-09-21T05:24:47.929Z,11.07
2018-09-21T05:27:17.555Z,9.83
2018-09-21T05:29:47.343Z,12.30
2018-09-21T05:32:16.977Z,10.03
2018-09-21T05:34:46.719Z,10.27
2018-09-21T05:37:16.315Z,10.13
2018-09-21T05:39:45.954Z,10.10
2018-09-21T05:42:15.608Z,9.87
2018-09-21T05:44:45.263Z,9.03
2018-09-21T05:47:14.906Z,8.63
2018-09-21T05:49:44.530Z,11.97
2018-09-21T05:52:14.164Z,13.53
2018-09-21T05:54:43.815Z,9.57
2018-09-21T05:57:13.443Z,9.80
2018-09-21T05:59:43.142Z,14.93
2018-09-21T06:02:12.838Z,10.93
2018-09-21T06:04:42.611Z,11.97
2018-09-21T06:07:12.232Z,9.40
2018-09-21T06:09:41.826Z,10.33
2018-09-21T06:12:11.471Z,10.60
2018-09-21T06:14:41.058Z,11.08
2018-09-21T06:17:10.622Z,11.55
2018-09-21T06:19:40.268Z,16.30
2018-09-21T06:22:09.897Z,12.23
2018-09-21T06:24:39.483Z,14.00
2018-09-21T06:27:09.141Z,14.30
2018-09-21T06:29:38.713Z,12.50
2018-09-21T06:32:08.301Z,13.27
2018-09-21T06:34:38.037Z,10.40
2018-09-21T06:37:07.682Z,11.73
2018-09-21T06:39:37.278Z,12.87
2018-09-21T06:42:07.214Z,11.30
2018-09-21T06:44:36.814Z,11.38
2018-09-21T06:47:06.664Z,11.07
2018-09-21T06:49:36.329Z,12.47
2018-09-21T06:52:06.011Z,12.23
2018-09-21T06:54:35.678Z,12.30
2018-09-21T06:57:05.346Z,10.13
2018-09-21T06:59:35.033Z,12.03
2018-09-21T07:02:04.815Z,12.00
2018-09-21T07:04:34.441Z,9.23
2018-09-21T07:07:04.125Z,9.85
2018-09-21T07:09:33.712Z,9.70
2018-09-21T07:12:03.363Z,8.73
2018-09-21T07:14:33.080Z,8.17
2018-09-21T07:17:02.775Z,11.47
2018-09-21T07:19:32.443Z,8.60
2018-09-21T07:22:02.079Z,10.03
2018-09-21T07:24:31.617Z,8.33
2018-09-21T07:27:01.268Z,8.47
2018-09-21T07:29:30.943Z,8.37
2018-09-21T07:32:00.592Z,10.03
2018-09-21T07:34:31.466Z,11.23
2018-09-21T07:37:01.146Z,8.20
2018-09-21T07:39:30.801Z,12.20
2018-09-21T07:42:00.619Z,8.33
2018-09-21T07:44:30.348Z,8.27
2018-09-21T07:47:00.330Z,7.90
2018-09-21T07:49:30.057Z,9.93
2018-09-21T07:51:59.712Z,8.00
2018-09-21T07:54:29.498Z,9.57
2018-09-21T07:57:00.281Z,10.97
2018-09-21T07:59:29.970Z,11.73
2018-09-21T08:02:00.093Z,7.53
2018-09-21T08:04:30.243Z,9.27
2018-09-21T08:06:59.958Z,7.87
2018-09-21T08:09:29.650Z,10.27
2018-09-21T08:11:59.322Z,8.43
2018-09-21T08:14:28.959Z,8.33
2018-09-21T08:16:58.628Z,8.07
2018-09-21T08:19:28.426Z,8.63
2018-09-21T08:21:59.075Z,9.83
2018-09-21T08:24:30.433Z,8.73
2018-09-21T08:27:00.120Z,8.97
2018-09-21T08:29:29.746Z,7.43
2018-09-21T08:32:00.599Z,9.17
2018-09-21T08:34:30.395Z,8.00
2018-09-21T08:37:00.137Z,11.23
2018-09-21T08:39:31.386Z,7.90
2018-09-21T08:42:01.131Z,9.17
2018-09-21T08:44:30.793Z,9.73
2018-09-21T08:47:00.405Z,9.10
2018-09-21T08:49:30.071Z,9.57
2018-09-21T08:51:59.752Z,9.20
2018-09-21T08:54:29.437Z,10.73
2018-09-21T08:56:59.361Z,8.30
2018-09-21T08:59:28.943Z,10.33
2018-09-21T09:01:58.605Z,9.00
2018-09-21T09:04:28.398Z,8.60
2018-09-21T09:06:58.037Z,8.93
2018-09-21T09:09:27.747Z,9.10
2018-09-21T09:11:57.454Z,10.33
2018-09-21T09:14:27.174Z,8.63
2018-09-21T09:17:01.683Z,8.87
2018-09-21T09:19:31.383Z,10.27
2018-09-21T09:22:01.208Z,8.57
2018-09-21T09:24:31.002Z,8.20
2018-09-21T09:27:00.671Z,10.63
2018-09-21T09:29:30.320Z,11.37
2018-09-21T09:31:59.960Z,11.37
2018-09-21T09:34:29.558Z,10.63
2018-09-21T09:36:59.364Z,9.73
2018-09-21T09:39:29.032Z,15.93
2018-09-21T09:41:58.652Z,10.77
2018-09-21T09:44:28.255Z,9.67
2018-09-21T09:46:57.940Z,10.33
2018-09-21T09:49:27.602Z,10.87
2018-09-21T09:51:57.256Z,9.33
2018-09-21T09:54:26.853Z,10.00
2018-09-21T09:56:56.459Z,12.73
2018-09-21T09:59:26.075Z,13.13
2018-09-21T10:01:55.661Z,14.10
2018-09-21T10:04:25.197Z,10.43
2018-09-21T10:06:54.774Z,12.27
2018-09-21T10:09:24.373Z,12.70
2018-09-21T10:11:53.950Z,9.93
2018-09-21T10:14:23.569Z,12.07
2018-09-21T10:16:53.215Z,10.30
2018-09-21T10:19:22.778Z,10.17
2018-09-21T10:21:52.436Z,11.30
2018-09-21T10:24:22.163Z,10.07
2018-09-21T10:26:51.769Z,9.77
2018-09-21T10:29:22.435Z,11.00
2018-09-21T10:31:51.999Z,10.80
2018-09-21T10:34:22.049Z,11.83
2018-09-21T10:36:51.654Z,10.40
2018-09-21T10:39:21.293Z,8.97
2018-09-21T10:41:50.961Z,11.63
2018-09-21T10:44:20.645Z,8.83
2018-09-21T10:46:50.362Z,11.03
2018-09-21T10:49:26.343Z,9.00
2018-09-21T10:51:55.966Z,9.40
2018-09-21T10:54:25.692Z,13.10
2018-09-21T10:56:55.317Z,10.05
2018-09-21T10:59:24.915Z,10.80
2018-09-21T11:01:54.506Z,13.03
2018-09-21T11:04:24.176Z,13.22
2018-09-21T11:06:53.774Z,14.23
2018-09-21T11:09:23.465Z,11.40
2018-09-21T11:11:53.148Z,17.95
2018-09-21T11:14:22.995Z,13.20
2018-09-21T11:16:52.675Z,13.28
2018-09-21T11:19:22.325Z,12.00
2018-09-21T11:21:51.997Z,12.50
2018-09-21T11:24:21.703Z,9.70
2018-09-21T11:26:51.334Z,12.40
2018-09-21T11:29:21.009Z,13.43
2018-09-21T11:31:50.651Z,9.90
2018-09-21T11:34:20.349Z,12.17
2018-09-21T11:36:49.967Z,10.80
2018-09-21T11:39:19.605Z,11.50
2018-09-21T11:41:49.263Z,11.12
2018-09-21T11:44:18.912Z,9.37
2018-09-21T11:46:48.621Z,9.73
2018-09-21T11:49:18.165Z,10.72
2018-09-21T11:51:47.755Z,11.40
2018-09-21T11:54:17.345Z,9.50
2018-09-21T11:56:46.979Z,9.65
2018-09-21T11:59:16.616Z,11.97
2018-09-21T12:01:46.291Z,9.00
2018-09-21T12:04:15.903Z,9.90
2018-09-21T12:06:45.503Z,11.50
2018-09-21T12:09:15.144Z,11.75
2018-09-21T12:11:44.767Z,16.15
2018-09-21T12:14:14.335Z,10.98
2018-09-21T12:16:44.003Z,9.85
2018-09-21T12:19:13.648Z,13.65
2018-09-21T12:21:43.332Z,10.55
2018-09-21T12:24:13.138Z,8.55
2018-09-21T12:26:42.824Z,10.90
2018-09-21T12:29:14.116Z,10.43
2018-09-21T12:31:43.862Z,11.00
2018-09-21T12:34:13.510Z,10.03
2018-09-21T12:36:43.289Z,12.03
2018-09-21T12:39:14.363Z,9.95
2018-09-21T12:41:44.496Z,10.43
2018-09-21T12:44:15.931Z,9.90
2018-09-21T12:46:45.570Z,9.58
2018-09-21T12:49:15.265Z,9.28
2018-09-21T12:51:44.897Z,9.88
2018-09-21T12:54:14.509Z,9.28
2018-09-21T12:56:44.163Z,10.00
2018-09-21T12:59:13.770Z,9.20
2018-09-21T13:01:43.387Z,11.05
2018-09-21T13:04:13.015Z,10.15
2018-09-21T13:06:42.605Z,13.20
2018-09-21T13:09:12.228Z,10.60
2018-09-21T13:11:41.926Z,8.00
2018-09-21T13:14:11.459Z,9.18
2018-09-21T13:16:41.238Z,9.10
2018-09-21T13:19:10.898Z,10.45
2018-09-21T13:21:40.494Z,10.70
2018-09-21T13:24:10.257Z,8.80
2018-09-21T13:26:39.970Z,9.10
2018-09-21T13:29:09.619Z,11.55
2018-09-21T13:31:39.233Z,16.93
2018-09-21T13:34:09.038Z,7.95
2018-09-21T13:36:38.660Z,8.30
2018-09-21T13:39:11.045Z,8.20
2018-09-21T13:41:40.979Z,10.08
2018-09-21T13:44:10.718Z,10.13
2018-09-21T13:46:40.363Z,11.28
2018-09-21T13:49:09.903Z,8.40
2018-09-21T13:51:39.525Z,11.22
2018-09-21T13:54:09.148Z,10.38
2018-09-21T13:56:38.761Z,12.40
2018-09-21T13:59:09.720Z,9.08
2018-09-21T14:01:39.435Z,11.30
2018-09-21T14:04:09.063Z,10.08
2018-09-21T14:06:38.638Z,14.15
2018-09-21T14:09:09.130Z,8.77
2018-09-21T14:11:38.839Z,10.47
2018-09-21T14:14:08.536Z,9.95
2018-09-21T14:16:38.137Z,11.90
2018-09-21T14:19:07.718Z,8.53
2018-09-21T14:21:37.316Z,10.05
2018-09-21T14:24:07.166Z,11.90
2018-09-21T14:26:36.883Z,10.60
2018-09-21T14:29:06.489Z,8.10
2018-09-21T14:31:36.067Z,8.50
2018-09-21T14:34:05.752Z,12.33
2018-09-21T14:36:35.366Z,9.78
2018-09-21T14:39:06.517Z,9.53
2018-09-21T14:41:36.147Z,12.28
2018-09-21T14:44:06.017Z,9.20
2018-09-21T14:46:35.645Z,10.50
2018-09-21T14:49:05.237Z,12.70
2018-09-21T14:51:34.878Z,10.58
2018-09-21T14:54:04.524Z,9.45
2018-09-21T14:56:34.160Z,8.25
2018-09-21T14:59:03.862Z,7.85
2018-09-21T15:01:33.497Z,10.35
2018-09-21T15:04:03.215Z,10.08
2018-09-21T15:06:32.848Z,10.45
2018-09-21T15:09:09.876Z,9.95
2018-09-21T15:11:39.969Z,8.35
2018-09-21T15:14:09.727Z,8.95
2018-09-21T15:16:39.684Z,8.85
2018-09-21T15:19:09.525Z,9.73
2018-09-21T15:21:39.149Z,8.93
2018-09-21T15:24:08.847Z,8.40
2018-09-21T15:26:38.557Z,9.98
2018-09-21T15:29:08.177Z,11.43
2018-09-21T15:31:37.759Z,9.10
2018-09-21T15:34:07.425Z,10.98
2018-09-21T15:36:37.056Z,10.55
2018-09-21T15:39:09.646Z,8.43
2018-09-21T15:41:39.389Z,10.15
2018-09-21T15:44:08.987Z,11.18
2018-09-21T15:46:38.665Z,13.43
2018-09-21T15:49:08.466Z,8.60
2018-09-21T15:51:38.337Z,13.30
2018-09-21T15:54:08.024Z,11.10
2018-09-21T15:56:37.637Z,14.85
2018-09-21T15:59:07.345Z,9.25
2018-09-21T16:01:36.922Z,11.43
2018-09-21T16:04:06.468Z,9.68
2018-09-21T16:06:36.110Z,9.78
2018-09-21T16:09:07.728Z,11.28
2018-09-21T16:11:38.495Z,12.75
2018-09-21T16:14:08.704Z,15.20
2018-09-21T16:16:38.927Z,16.27
2018-09-21T16:19:08.510Z,15.78
2018-09-21T16:21:38.137Z,13.90
2018-09-21T16:24:07.766Z,11.75
2018-09-21T16:26:37.430Z,10.88
2018-09-21T16:29:07.125Z,14.87
2018-09-21T16:31:36.755Z,12.37
2018-09-21T16:34:06.482Z,10.00
2018-09-21T16:36:36.084Z,11.20
2018-09-21T16:39:08.513Z,9.53
2018-09-21T16:41:38.124Z,11.10
2018-09-21T16:44:08.074Z,10.50
2018-09-21T16:46:38.211Z,13.03
2018-09-21T16:49:07.863Z,10.98
2018-09-21T16:51:37.451Z,12.35
2018-09-21T16:54:07.185Z,13.75
2018-09-21T16:56:36.813Z,14.15
2018-09-21T16:59:06.413Z,16.50
2018-09-21T17:01:36.127Z,13.95
2018-09-21T17:04:05.941Z,13.10
2018-09-21T17:06:35.574Z,15.85
2018-09-21T17:09:08.075Z,13.83
2018-09-21T17:11:37.668Z,12.07
2018-09-21T17:14:07.428Z,12.50
2018-09-21T17:16:37.105Z,22.35
2018-09-21T17:19:06.795Z,13.35
2018-09-21T17:21:36.473Z,16.00
2018-09-21T17:24:06.405Z,13.70
2018-09-21T17:26:36.379Z,19.27
2018-09-21T17:29:06.311Z,15.65
2018-09-21T17:31:36.309Z,21.60
2018-09-21T17:34:06.546Z,23.57
2018-09-21T17:36:36.765Z,30.73
2018-09-21T17:39:10.371Z,28.47
2018-09-21T17:41:40.949Z,24.10
2018-09-21T17:44:11.578Z,18.10
2018-09-21T17:46:41.873Z,19.70
2018-09-21T17:49:12.372Z,21.70
2018-09-21T17:51:42.904Z,20.27
2018-09-21T17:54:13.277Z,20.60
2018-09-21T17:56:43.473Z,23.87
2018-09-21T17:59:13.801Z,18.17
2018-09-21T18:01:44.303Z,19.50
2018-09-21T18:04:14.632Z,19.63
2018-09-21T18:06:45.129Z,19.23
2018-09-21T18:09:15.510Z,21.73
2018-09-21T18:11:45.916Z,20.60
2018-09-21T18:14:16.312Z,21.57
2018-09-21T18:16:46.798Z,21.77
2018-09-21T18:19:17.224Z,22.87
2018-09-21T18:21:48.335Z,22.57
2018-09-21T18:24:18.798Z,24.03
2018-09-21T18:26:50.181Z,27.40
2018-09-21T18:29:20.633Z,31.00
2018-09-21T18:31:51.124Z,27.70
2018-09-21T18:34:21.525Z,24.43
2018-09-21T18:36:52.061Z,25.03
2018-09-21T18:39:22.535Z,23.63
2018-09-21T18:41:52.965Z,23.70
2018-09-21T18:44:23.487Z,25.27
2018-09-21T18:46:53.962Z,26.07
2018-09-21T18:49:24.323Z,25.37
2018-09-21T18:51:54.721Z,27.77
2018-09-21T18:54:25.123Z,25.43
2018-09-21T18:56:55.384Z,29.13
2018-09-21T18:59:25.585Z,30.93
2018-09-21T19:01:56.039Z,30.30
2018-09-21T19:04:26.407Z,34.37
2018-09-21T19:06:56.918Z,30.57
2018-09-21T19:09:27.178Z,35.90
2018-09-21T19:11:57.154Z,33.40
2018-09-21T19:14:26.799Z,30.57
2018-09-21T19:16:56.651Z,33.80
2018-09-21T19:19:26.598Z,30.57
2018-09-21T19:21:56.439Z,32.60
2018-09-21T19:24:26.373Z,33.13
2018-09-21T19:26:56.110Z,31.60
2018-09-21T19:29:26.141Z,32.23
2018-09-21T19:31:56.151Z,30.03
2018-09-21T19:34:26.001Z,28.87
2018-09-21T19:36:55.608Z,28.17
2018-09-21T19:39:25.311Z,27.63
2018-09-21T19:41:55.242Z,27.20
2018-09-21T19:44:25.018Z,29.37
2018-09-21T19:46:54.834Z,31.63
2018-09-21T19:49:24.750Z,31.13
2018-09-21T19:51:54.525Z,31.50
2018-09-21T19:54:24.381Z,33.07
2018-09-21T19:56:54.018Z,33.10
2018-09-21T19:59:23.704Z,33.27
2018-09-21T20:01:53.422Z,34.60
2018-09-21T20:04:23.162Z,34.67
2018-09-21T20:06:52.788Z,33.53
2018-09-21T20:09:22.436Z,33.20
2018-09-21T20:11:52.133Z,32.37
2018-09-21T20:14:21.725Z,34.47
2018-09-21T20:16:51.376Z,34.57
2018-09-21T20:19:20.975Z,34.80
2018-09-21T20:21:50.569Z,32.10
2018-09-21T20:24:20.295Z,32.83
2018-09-21T20:26:49.893Z,30.17
2018-09-21T20:29:19.497Z,33.77
2018-09-21T20:31:54.204Z,32.37
2018-09-21T20:34:23.940Z,32.90
2018-09-21T20:36:53.631Z,34.03
2018-09-21T20:39:23.256Z,33.77
2018-09-21T20:41:52.853Z,35.77
2018-09-21T20:44:22.496Z,35.00
2018-09-21T20:46:52.145Z,39.83
2018-09-21T20:49:21.762Z,35.27
2018-09-21T20:51:51.399Z,34.53
2018-09-21T20:54:21.299Z,36.83
2018-09-21T20:56:50.841Z,35.07
2018-09-21T20:59:20.568Z,32.67
2018-09-21T21:01:50.242Z,34.43
2018-09-21T21:04:19.924Z,36.37
2018-09-21T21:06:49.638Z,35.87
2018-09-21T21:09:19.334Z,35.60
2018-09-21T21:11:48.895Z,35.33
2018-09-21T21:14:18.513Z,33.77
2018-09-21T21:16:48.099Z,35.00
2018-09-21T21:19:17.677Z,34.97
2018-09-21T21:21:47.284Z,32.60
2018-09-21T21:24:16.879Z,36.07
2018-09-21T21:26:46.530Z,32.27
2018-09-21T21:29:16.149Z,31.03
2018-09-21T21:31:45.820Z,33.10
2018-09-21T21:34:15.412Z,31.30
2018-09-21T21:36:45.034Z,31.03
2018-09-21T21:39:14.641Z,34.80
2018-09-21T21:41:44.285Z,31.10
2018-09-21T21:44:13.883Z,31.77
2018-09-21T21:46:43.502Z,31.77
2018-09-21T21:49:13.246Z,30.40
2018-09-21T21:51:42.852Z,26.30
2018-09-21T21:54:12.461Z,26.97
2018-09-21T21:56:42.265Z,29.60
2018-09-21T21:59:11.854Z,28.57
2018-09-21T22:01:46.426Z,28.27
2018-09-21T22:04:17.466Z,27.10
2018-09-21T22:06:47.088Z,28.37
2018-09-21T22:09:16.707Z,27.50
2018-09-21T22:11:51.406Z,28.40
2018-09-21T22:14:21.003Z,26.97
2018-09-21T22:16:50.616Z,25.07
2018-09-21T22:19:20.215Z,25.50
2018-09-21T22:21:49.852Z,24.93
2018-09-21T22:24:19.484Z,25.20
2018-09-21T22:26:49.143Z,24.60
2018-09-21T22:29:18.821Z,24.40
2018-09-21T22:31:48.428Z,24.37
2018-09-21T22:34:18.084Z,24.70
2018-09-21T22:36:47.727Z,22.37
2018-09-21T22:39:17.412Z,24.83
2018-09-21T22:41:47.064Z,23.77
2018-09-21T22:44:16.673Z,24.67
2018-09-21T22:46:46.332Z,26.77
2018-09-21T22:49:22.795Z,26.20
2018-09-21T22:51:52.427Z,26.27
2018-09-21T22:54:22.322Z,24.30
2018-09-21T22:56:51.867Z,24.57
2018-09-21T22:59:21.519Z,25.10
2018-09-21T23:01:51.149Z,26.57
2018-09-21T23:04:20.844Z,24.87
2018-09-21T23:06:50.402Z,26.73
2018-09-21T23:09:20.063Z,24.70
2018-09-21T23:11:49.666Z,23.50
2018-09-21T23:14:19.217Z,27.33
2018-09-21T23:16:48.842Z,25.80
2018-09-21T23:19:18.467Z,29.47
2018-09-21T23:21:48.113Z,27.90
2018-09-21T23:24:17.705Z,28.60
2018-09-21T23:26:47.310Z,28.13
2018-09-21T23:29:16.969Z,28.90
2018-09-21T23:31:46.520Z,28.27
2018-09-21T23:34:16.126Z,27.37
2018-09-21T23:36:45.690Z,30.00
2018-09-21T23:39:15.312Z,29.77
2018-09-21T23:41:44.958Z,29.83
2018-09-21T23:44:14.581Z,29.23
2018-09-21T23:46:44.130Z,28.63
2018-09-21T23:49:13.709Z,29.93
2018-09-21T23:51:43.318Z,28.47
2018-09-21T23:54:12.940Z,29.07
2018-09-21T23:56:42.533Z,27.90
2018-09-21T23:59:12.130Z,27.53
